createdAt,value
2018-02-20T00:02:13.357Z,52.10
2018-02-20T00:04:40.918Z,52.63
2018-02-20T00:07:08.500Z,51.63
2018-02-20T00:09:36.070Z,53.10
2018-02-20T00:12:03.669Z,55.03
2018-02-20T00:14:31.244Z,48.27
2018-02-20T00:16:58.838Z,42.07
2018-02-20T00:19:26.405Z,50.13
2018-02-20T00:21:53.993Z,53.80
2018-02-20T00:24:22.322Z,61.73
2018-02-20T00:26:49.904Z,43.83
2018-02-20T00:29:17.465Z,52.03
2018-02-20T00:31:45.069Z,45.27
2018-02-20T00:34:12.638Z,54.37
2018-02-20T00:36:40.229Z,47.87
2018-02-20T00:39:07.802Z,49.40
2018-02-20T00:41:35.397Z,51.53
2018-02-20T00:44:02.962Z,52.27
2018-02-20T00:46:30.549Z,52.10
2018-02-20T00:48:58.121Z,54.97
2018-02-20T00:51:25.709Z,53.20
2018-02-20T00:53:53.302Z,46.50
2018-02-20T00:56:21.089Z,54.37
2018-02-20T00:58:48.664Z,57.67
2018-02-20T01:01:16.263Z,60.30
2018-02-20T01:03:43.833Z,56.70
2018-02-20T01:06:12.188Z,51.00
2018-02-20T01:08:39.757Z,58.97
2018-02-20T01:11:07.661Z,56.87
2018-02-20T01:13:35.223Z,51.50
2018-02-20T01:16:02.969Z,54.77
2018-02-20T01:18:30.539Z,50.10
2018-02-20T01:20:58.131Z,52.17
2018-02-20T01:23:25.700Z,48.20
2018-02-20T01:25:53.295Z,59.83
2018-02-20T01:28:21.624Z,57.17
2018-02-20T01:30:49.981Z,58.90
2018-02-20T01:33:17.541Z,54.13
2018-02-20T01:35:45.130Z,61.83
2018-02-20T01:38:12.689Z,55.77
2018-02-20T01:40:40.260Z,59.80
2018-02-20T01:43:07.853Z,62.20
2018-02-20T01:45:35.425Z,61.53
2018-02-20T01:48:03.018Z,56.50
2018-02-20T01:50:30.580Z,64.07
2018-02-20T01:52:58.178Z,56.47
2018-02-20T01:55:26.510Z,56.07
2018-02-20T01:57:54.105Z,51.60
2018-02-20T02:00:21.677Z,49.63
2018-02-20T02:02:50.036Z,57.17
2018-02-20T02:05:17.610Z,64.20
2018-02-20T02:07:45.976Z,58.70
2018-02-20T02:10:14.304Z,52.57
2018-02-20T02:12:41.894Z,51.07
2018-02-20T02:15:09.474Z,52.93
2018-02-20T02:17:37.070Z,49.73
2018-02-20T02:20:04.638Z,56.70
2018-02-20T02:22:32.230Z,60.97
2018-02-20T02:24:59.796Z,57.50
2018-02-20T02:27:27.377Z,58.80
2018-02-20T02:29:54.938Z,52.17
2018-02-20T02:32:23.298Z,50.30
2018-02-20T02:34:51.633Z,54.90
2018-02-20T02:37:19.233Z,58.47
2018-02-20T02:39:46.796Z,59.13
2018-02-20T02:42:14.383Z,61.00
2018-02-20T02:44:41.954Z,62.17
2018-02-20T02:47:09.541Z,58.90
2018-02-20T02:49:37.100Z,53.13
2018-02-20T02:52:04.699Z,51.07
2018-02-20T02:54:32.275Z,57.53
2018-02-20T02:56:59.860Z,58.10
2018-02-20T02:59:27.432Z,52.93
2018-02-20T03:01:55.030Z,52.27
2018-02-20T03:04:22.603Z,54.80
2018-02-20T03:06:50.192Z,58.67
2018-02-20T03:09:17.761Z,54.77
2018-02-20T03:11:45.336Z,53.53
2018-02-20T03:14:12.938Z,51.90
2018-02-20T03:16:40.501Z,56.20
2018-02-20T03:19:08.858Z,52.40
2018-02-20T03:21:36.439Z,53.60
2018-02-20T03:24:04.025Z,53.73
2018-02-20T03:26:31.588Z,49.80
2018-02-20T03:28:59.187Z,57.80
2018-02-20T03:31:26.753Z,52.80
2018-02-20T03:33:55.109Z,57.63
2018-02-20T03:36:22.673Z,51.20
2018-02-20T03:38:50.260Z,58.60
2018-02-20T03:41:17.839Z,58.17
2018-02-20T03:43:45.420Z,51.00
2018-02-20T03:46:12.988Z,54.73
2018-02-20T03:48:40.581Z,57.70
2018-02-20T03:51:08.149Z,50.40
2018-02-20T03:53:35.741Z,58.37
2018-02-20T03:56:03.333Z,48.00
2018-02-20T03:58:30.975Z,49.80
2018-02-20T04:00:58.546Z,54.73
2018-02-20T04:03:26.145Z,46.57
2018-02-20T04:05:53.713Z,54.03
2018-02-20T04:08:22.066Z,47.60
2018-02-20T04:10:49.632Z,52.57
2018-02-20T04:13:17.225Z,41.73
2018-02-20T04:15:44.789Z,52.70
2018-02-20T04:18:12.378Z,56.23
2018-02-20T04:20:40.705Z,51.57
2018-02-20T04:23:08.294Z,46.80
2018-02-20T04:25:35.866Z,47.00
2018-02-20T04:28:03.457Z,54.13
2018-02-20T04:30:31.025Z,51.13
2018-02-20T04:32:58.622Z,54.37
2018-02-20T04:35:26.186Z,58.00
2018-02-20T04:37:53.778Z,56.77
2018-02-20T04:40:21.353Z,55.10
2018-02-20T04:42:48.921Z,58.30
2018-02-20T04:45:17.272Z,58.70
2018-02-20T04:47:44.841Z,62.13
2018-02-20T04:50:12.431Z,84.97
2018-02-20T04:52:39.992Z,72.70
2018-02-20T04:55:08.355Z,77.27
2018-02-20T04:57:36.684Z,74.70
2018-02-20T05:00:04.267Z,63.30
2018-02-20T05:02:31.834Z,66.30
2018-02-20T05:04:59.434Z,69.63
2018-02-20T05:07:26.997Z,59.07
2018-02-20T05:09:54.590Z,52.67
2018-02-20T05:12:22.156Z,58.70
2018-02-20T05:14:49.756Z,58.97
2018-02-20T05:17:17.320Z,59.27
2018-02-20T05:19:46.382Z,62.00
2018-02-20T05:22:13.955Z,73.77
2018-02-20T05:24:41.550Z,66.87
2018-02-20T05:27:09.126Z,57.80
2018-02-20T05:29:36.718Z,58.37
2018-02-20T05:32:04.295Z,57.77
2018-02-20T05:34:32.652Z,56.63
2018-02-20T05:37:00.228Z,50.60
2018-02-20T05:39:27.838Z,56.10
2018-02-20T05:41:55.401Z,58.87
2018-02-20T05:44:22.998Z,60.77
2018-02-20T05:46:51.416Z,56.13
2018-02-20T05:49:19.017Z,58.80
2018-02-20T05:51:46.584Z,52.33
2018-02-20T05:54:14.174Z,57.20
2018-02-20T05:56:42.550Z,62.83
2018-02-20T05:59:10.116Z,53.43
2018-02-20T06:01:37.689Z,61.60
2018-02-20T06:04:05.290Z,71.17
2018-02-20T06:06:32.865Z,51.03
2018-02-20T06:09:02.083Z,54.90
2018-02-20T06:11:29.661Z,57.23
2018-02-20T06:13:57.255Z,61.47
2018-02-20T06:16:24.826Z,64.87
2018-02-20T06:18:52.986Z,66.97
2018-02-20T06:21:20.545Z,61.37
2018-02-20T06:23:48.108Z,59.77
2018-02-20T06:26:15.706Z,58.43
2018-02-20T06:28:43.274Z,58.57
2018-02-20T06:31:10.858Z,62.93
2018-02-20T06:33:38.426Z,62.00
2018-02-20T06:36:06.013Z,58.97
2018-02-20T06:38:33.580Z,58.97
2018-02-20T06:41:01.174Z,60.17
2018-02-20T06:43:28.737Z,57.27
2018-02-20T06:45:56.334Z,61.20
2018-02-20T06:48:23.910Z,91.10
2018-02-20T06:50:51.507Z,75.23
2018-02-20T06:53:19.069Z,65.83
2018-02-20T06:55:47.420Z,62.50
2018-02-20T06:58:15.029Z,60.50
2018-02-20T07:00:42.608Z,64.33
2018-02-20T07:03:10.177Z,62.27
2018-02-20T07:05:37.778Z,59.87
2018-02-20T07:08:05.363Z,58.07
2018-02-20T07:10:32.953Z,55.57
2018-02-20T07:13:00.530Z,67.47
2018-02-20T07:15:28.122Z,64.73
2018-02-20T07:17:55.695Z,58.70
2018-02-20T07:20:24.525Z,66.30
2018-02-20T07:22:52.084Z,59.23
2018-02-20T07:25:19.677Z,57.80
2018-02-20T07:27:47.254Z,56.40
2018-02-20T07:30:14.845Z,60.13
2018-02-20T07:32:42.417Z,59.67
2018-02-20T07:35:10.011Z,59.03
2018-02-20T07:37:38.357Z,59.53
2018-02-20T07:40:05.951Z,65.90
2018-02-20T07:42:33.517Z,58.63
2018-02-20T07:45:01.121Z,66.60
2018-02-20T07:47:29.460Z,61.27
2018-02-20T07:49:57.041Z,59.23
2018-02-20T07:52:24.618Z,62.07
2018-02-20T07:54:52.210Z,63.20
2018-02-20T07:57:19.820Z,59.23
2018-02-20T07:59:47.397Z,70.13
2018-02-20T08:02:15.754Z,62.40
2018-02-20T08:04:43.330Z,65.40
2018-02-20T08:07:10.925Z,66.63
2018-02-20T08:09:38.504Z,68.87
2018-02-20T08:12:06.100Z,60.20
2018-02-20T08:14:33.673Z,64.57
2018-02-20T08:17:01.265Z,67.30
2018-02-20T08:19:29.598Z,55.90
2018-02-20T08:21:57.205Z,60.73
2018-02-20T08:24:25.552Z,59.43
2018-02-20T08:26:53.145Z,71.53
2018-02-20T08:29:20.725Z,60.10
2018-02-20T08:31:48.313Z,50.00
2018-02-20T08:34:15.886Z,55.30
2018-02-20T08:36:43.472Z,51.73
2018-02-20T08:39:11.042Z,54.20
2018-02-20T08:41:38.742Z,47.60
2018-02-20T08:44:06.737Z,52.60
2018-02-20T08:46:34.388Z,64.83
2018-02-20T08:49:01.957Z,47.17
2018-02-20T08:51:29.562Z,47.30
2018-02-20T08:53:57.130Z,42.10
2018-02-20T08:56:24.712Z,39.60
2018-02-20T08:58:52.278Z,38.90
2018-02-20T09:01:19.914Z,34.73
2018-02-20T09:03:47.483Z,41.47
2018-02-20T09:06:15.073Z,41.33
2018-02-20T09:08:42.673Z,31.80
2018-02-20T09:11:10.266Z,35.40
2018-02-20T09:13:37.858Z,31.10
2018-02-20T09:16:05.440Z,35.27
2018-02-20T09:18:33.766Z,30.00
2018-02-20T09:21:01.370Z,28.30
2018-02-20T09:23:28.946Z,31.43
2018-02-20T09:25:56.555Z,27.03
2018-02-20T09:28:24.130Z,33.00
2018-02-20T09:30:51.725Z,31.93
2018-02-20T09:33:20.058Z,39.27
2018-02-20T09:35:47.649Z,28.17
2018-02-20T09:38:15.213Z,24.80
2018-02-20T09:40:42.777Z,21.50
2018-02-20T09:43:11.137Z,24.90
2018-02-20T09:45:38.729Z,21.80
2018-02-20T09:48:06.309Z,21.27
2018-02-20T09:50:33.877Z,22.90
2018-02-20T09:53:01.478Z,21.57
2018-02-20T09:55:29.268Z,23.70
2018-02-20T09:57:56.861Z,25.33
2018-02-20T10:00:24.424Z,22.47
2018-02-20T10:02:52.017Z,22.40
2018-02-20T10:05:20.354Z,21.93
2018-02-20T10:07:47.951Z,25.50
2018-02-20T10:10:15.522Z,20.60
2018-02-20T10:12:43.118Z,27.53
2018-02-20T10:15:10.693Z,19.33
2018-02-20T10:17:38.285Z,23.43
2018-02-20T10:20:05.847Z,22.77
2018-02-20T10:22:33.437Z,21.80
2018-02-20T10:25:01.253Z,24.80
2018-02-20T10:27:28.848Z,21.90
2018-02-20T10:29:56.422Z,24.33
2018-02-20T10:32:24.013Z,27.03
2018-02-20T10:34:51.586Z,22.67
2018-02-20T10:37:19.177Z,23.33
2018-02-20T10:39:47.520Z,22.20
2018-02-20T10:42:15.105Z,19.93
2018-02-20T10:44:42.673Z,30.80
2018-02-20T10:47:11.041Z,23.33
2018-02-20T10:49:38.609Z,24.80
2018-02-20T10:52:06.968Z,27.10
2018-02-20T10:54:34.543Z,22.43
2018-02-20T10:57:02.135Z,21.80
2018-02-20T10:59:29.702Z,24.90
2018-02-20T11:01:57.285Z,24.63
2018-02-20T11:04:24.844Z,23.50
2018-02-20T11:06:52.441Z,26.10
2018-02-20T11:09:20.005Z,27.27
2018-02-20T11:11:48.398Z,24.33
2018-02-20T11:14:15.989Z,29.10
2018-02-20T11:16:44.390Z,29.00
2018-02-20T11:19:11.818Z,23.53
2018-02-20T11:21:39.382Z,21.70
2018-02-20T11:24:06.982Z,23.63
2018-02-20T11:26:35.317Z,25.67
2018-02-20T11:29:02.909Z,25.40
2018-02-20T11:31:30.476Z,22.93
2018-02-20T11:33:58.065Z,29.17
2018-02-20T11:36:25.628Z,37.20
2018-02-20T11:38:53.236Z,43.60
2018-02-20T11:41:21.736Z,42.13
2018-02-20T11:43:50.133Z,43.73
2018-02-20T11:46:17.674Z,46.00
2018-02-20T11:48:45.269Z,43.90
2018-02-20T11:51:12.838Z,40.57
2018-02-20T11:53:40.779Z,42.33
2018-02-20T11:56:08.349Z,42.20
2018-02-20T11:58:36.004Z,47.47
2018-02-20T12:01:03.575Z,43.53
2018-02-20T12:03:31.174Z,47.80
2018-02-20T12:06:00.924Z,42.90
2018-02-20T12:08:28.506Z,43.93
2018-02-20T12:10:56.086Z,51.17
2018-02-20T12:13:23.694Z,42.80
2018-02-20T12:15:51.263Z,44.03
2018-02-20T12:18:18.867Z,40.70
2018-02-20T12:20:47.206Z,40.43
2018-02-20T12:23:14.798Z,47.07
2018-02-20T12:25:42.390Z,48.23
2018-02-20T12:28:09.992Z,44.23
2018-02-20T12:30:37.567Z,42.53
2018-02-20T12:33:05.245Z,40.80
2018-02-20T12:35:32.817Z,43.77
2018-02-20T12:38:00.702Z,42.87
2018-02-20T12:40:28.306Z,47.30
2018-02-20T12:42:55.910Z,43.33
2018-02-20T12:45:23.477Z,38.43
2018-02-20T12:47:51.851Z,40.27
2018-02-20T12:50:19.412Z,44.77
2018-02-20T12:52:47.013Z,39.07
2018-02-20T12:55:14.577Z,36.23
2018-02-20T12:57:42.144Z,32.37
2018-02-20T13:00:09.733Z,32.60
2018-02-20T13:02:37.303Z,31.90
2018-02-20T13:05:04.910Z,32.43
2018-02-20T13:07:32.490Z,39.10
2018-02-20T13:10:00.101Z,32.87
2018-02-20T13:12:27.684Z,36.00
2018-02-20T13:14:55.277Z,40.97
2018-02-20T13:17:22.851Z,33.47
2018-02-20T13:19:50.433Z,33.07
2018-02-20T13:22:18.767Z,30.07
2018-02-20T13:24:46.370Z,28.60
2018-02-20T13:27:13.937Z,30.57
2018-02-20T13:29:41.543Z,33.27
2018-02-20T13:32:09.119Z,35.57
2018-02-20T13:34:36.709Z,32.40
2018-02-20T13:37:05.049Z,29.63
2018-02-20T13:39:32.641Z,30.13
2018-02-20T13:42:00.211Z,28.53
2018-02-20T13:44:28.567Z,27.93
2018-02-20T13:46:56.142Z,32.43
2018-02-20T13:49:23.737Z,33.10
2018-02-20T13:51:51.309Z,36.87
2018-02-20T13:54:18.911Z,29.70
2018-02-20T13:56:46.481Z,31.97
2018-02-20T13:59:14.841Z,28.10
2018-02-20T14:01:42.404Z,32.90
2018-02-20T14:04:10.756Z,30.27
2018-02-20T14:06:38.331Z,28.20
2018-02-20T14:09:05.935Z,29.30
2018-02-20T14:11:33.498Z,33.63
2018-02-20T14:14:01.094Z,30.20
2018-02-20T14:16:28.664Z,34.03
2018-02-20T14:18:56.251Z,33.37
2018-02-20T14:21:24.580Z,34.20
2018-02-20T14:23:52.939Z,30.20
2018-02-20T14:26:20.514Z,35.60
2018-02-20T14:28:48.112Z,29.93
2018-02-20T14:31:15.690Z,31.33
2018-02-20T14:33:43.261Z,32.10
2018-02-20T14:36:10.849Z,31.40
2018-02-20T14:38:38.418Z,29.10
2018-02-20T14:41:06.013Z,31.63
2018-02-20T14:43:33.576Z,37.50
2018-02-20T14:46:01.930Z,29.73
2018-02-20T14:48:29.500Z,25.47
2018-02-20T14:50:57.875Z,25.37
2018-02-20T14:53:26.205Z,26.00
2018-02-20T14:55:53.798Z,24.00
2018-02-20T14:58:21.371Z,28.97
2018-02-20T15:00:48.962Z,39.17
2018-02-20T15:03:16.525Z,28.40
2018-02-20T15:05:44.206Z,32.20
2018-02-20T15:08:11.785Z,30.40
2018-02-20T15:10:39.374Z,30.10
2018-02-20T15:13:07.710Z,26.40
2018-02-20T15:15:35.306Z,30.73
2018-02-20T15:18:03.641Z,30.20
2018-02-20T15:20:31.902Z,30.00
2018-02-20T15:22:59.480Z,26.97
2018-02-20T15:25:27.087Z,24.50
2018-02-20T15:27:54.663Z,34.17
2018-02-20T15:30:22.254Z,29.07
2018-02-20T15:32:49.819Z,26.83
2018-02-20T15:35:17.412Z,35.63
2018-02-20T15:37:45.742Z,26.73
2018-02-20T15:40:13.333Z,30.87
2018-02-20T15:42:40.907Z,26.53
2018-02-20T15:45:09.272Z,26.07
2018-02-20T15:47:37.685Z,32.13
2018-02-20T15:50:05.270Z,30.27
2018-02-20T15:52:32.855Z,31.83
2018-02-20T15:55:00.464Z,30.37
2018-02-20T15:57:28.059Z,27.77
2018-02-20T15:59:55.651Z,27.93
2018-02-20T16:02:23.220Z,32.13
2018-02-20T16:04:50.824Z,29.30
2018-02-20T16:07:18.414Z,31.60
2018-02-20T16:09:46.362Z,28.47
2018-02-20T16:12:13.926Z,29.40
2018-02-20T16:14:41.897Z,29.00
2018-02-20T16:17:09.486Z,32.67
2018-02-20T16:19:37.066Z,34.20
2018-02-20T16:22:05.418Z,36.33
2018-02-20T16:24:33.757Z,33.90
2018-02-20T16:27:01.360Z,31.63
2018-02-20T16:29:29.079Z,36.83
2018-02-20T16:31:56.669Z,35.60
2018-02-20T16:34:24.264Z,37.43
2018-02-20T16:36:53.461Z,44.67
2018-02-20T16:39:21.033Z,37.03
2018-02-20T16:41:48.630Z,36.53
2018-02-20T16:44:16.205Z,42.13
2018-02-20T16:46:43.795Z,33.73
2018-02-20T16:49:11.668Z,29.07
2018-02-20T16:51:39.221Z,30.13
2018-02-20T16:54:08.391Z,37.40
2018-02-20T16:56:36.003Z,40.10
2018-02-20T16:59:03.588Z,32.87
2018-02-20T17:01:31.200Z,27.17
2018-02-20T17:03:58.776Z,29.90
2018-02-20T17:06:26.370Z,28.73
2018-02-20T17:08:53.945Z,34.60
2018-02-20T17:11:21.556Z,24.77
2018-02-20T17:13:49.136Z,27.20
2018-02-20T17:16:16.777Z,25.87
2018-02-20T17:18:44.396Z,24.83
2018-02-20T17:21:12.011Z,31.70
2018-02-20T17:23:39.585Z,27.60
2018-02-20T17:26:07.198Z,23.47
2018-02-20T17:28:34.766Z,25.57
2018-02-20T17:31:02.371Z,22.07
2018-02-20T17:33:29.948Z,25.47
2018-02-20T17:35:58.313Z,24.40
2018-02-20T17:38:25.886Z,29.20
2018-02-20T17:40:53.480Z,25.13
2018-02-20T17:43:21.054Z,28.07
2018-02-20T17:45:48.641Z,24.77
2018-02-20T17:48:16.223Z,33.20
2018-02-20T17:50:44.588Z,24.47
2018-02-20T17:53:13.045Z,24.93
2018-02-20T17:55:40.681Z,25.30
2018-02-20T17:58:08.276Z,31.07
2018-02-20T18:00:35.867Z,28.37
2018-02-20T18:03:03.623Z,27.87
2018-02-20T18:05:31.207Z,26.87
2018-02-20T18:07:59.299Z,24.83
2018-02-20T18:13:00.702Z,33.23
2018-02-20T18:15:28.278Z,42.73
2018-02-20T18:17:55.891Z,52.20
2018-02-20T18:20:23.459Z,64.00
2018-02-20T18:22:51.054Z,70.10
2018-02-20T18:25:19.483Z,53.43
2018-02-20T18:27:47.102Z,51.43
2018-02-20T18:30:14.678Z,49.60
2018-02-20T18:32:42.272Z,53.73
2018-02-20T18:35:09.866Z,60.43
2018-02-20T18:37:37.465Z,58.03
2018-02-20T18:40:05.063Z,42.67
2018-02-20T18:42:32.662Z,52.20
2018-02-20T18:45:00.229Z,54.10
2018-02-20T18:47:28.736Z,54.23
2018-02-20T18:49:56.302Z,49.67
2018-02-20T18:52:23.897Z,51.17
2018-02-20T18:54:51.478Z,51.07
2018-02-20T18:57:19.088Z,53.00
2018-02-20T18:59:46.649Z,51.73
2018-02-20T19:02:14.259Z,47.33
2018-02-20T19:04:42.598Z,50.83
2018-02-20T19:07:10.198Z,58.83
2018-02-20T19:09:38.534Z,57.80
2018-02-20T19:12:06.137Z,53.87
2018-02-20T19:14:34.479Z,54.50
2018-02-20T19:17:02.088Z,45.83
2018-02-20T19:19:29.701Z,56.10
2018-02-20T19:21:57.285Z,49.27
2018-02-20T19:24:24.857Z,44.60
2018-02-20T19:26:52.464Z,49.90
2018-02-20T19:29:20.633Z,49.20
2018-02-20T19:31:48.457Z,49.97
2018-02-20T19:34:16.022Z,41.30
2018-02-20T19:36:43.598Z,44.37
2018-02-20T19:39:11.215Z,56.50
2018-02-20T19:41:38.817Z,46.70
2018-02-20T19:44:06.490Z,68.00
2018-02-20T19:46:34.180Z,52.57
2018-02-20T19:49:02.228Z,46.33
2018-02-20T19:51:31.239Z,65.30
2018-02-20T19:53:58.889Z,73.77
2018-02-20T19:56:26.460Z,87.90
2018-02-20T19:58:54.071Z,65.43
2018-02-20T20:01:21.828Z,48.87
2018-02-20T20:03:49.425Z,49.13
2018-02-20T20:06:16.994Z,46.57
2018-02-20T20:08:47.217Z,54.33
2018-02-20T20:11:14.812Z,47.40
2018-02-20T20:13:42.536Z,44.37
2018-02-20T20:16:10.105Z,45.77
2018-02-20T20:18:39.065Z,45.13
2018-02-20T20:21:06.651Z,46.40
2018-02-20T20:23:34.240Z,54.30
2018-02-20T20:26:02.582Z,50.33
2018-02-20T20:28:30.178Z,56.63
2018-02-20T20:30:57.748Z,48.87
2018-02-20T20:33:25.349Z,52.07
2018-02-20T20:35:52.945Z,48.57
2018-02-20T20:38:20.549Z,55.33
2018-02-20T20:40:48.132Z,52.97
2018-02-20T20:43:15.755Z,59.27
2018-02-20T20:45:43.335Z,43.13
2018-02-20T20:48:10.925Z,54.37
2018-02-20T20:50:38.529Z,51.57
2018-02-20T20:53:06.138Z,48.77
2018-02-20T20:55:33.709Z,46.93
2018-02-20T20:58:01.305Z,56.53
2018-02-20T21:00:28.868Z,43.00
2018-02-20T21:02:56.457Z,47.10
2018-02-20T21:05:24.024Z,62.33
2018-02-20T21:07:51.609Z,60.23
2018-02-20T21:10:19.185Z,59.87
2018-02-20T21:12:47.557Z,57.00
2018-02-20T21:15:15.124Z,49.50
2018-02-20T21:17:43.506Z,53.90
2018-02-20T21:20:11.093Z,46.77
2018-02-20T21:22:39.273Z,44.43
2018-02-20T21:25:06.868Z,40.63
2018-02-20T21:27:34.444Z,45.40
2018-02-20T21:30:02.045Z,42.27
2018-02-20T21:32:29.621Z,48.27
2018-02-20T21:34:57.212Z,44.40
2018-02-20T21:37:24.810Z,44.33
2018-02-20T21:39:52.416Z,42.47
2018-02-20T21:42:20.014Z,37.50
2018-02-20T21:44:47.609Z,43.80
2018-02-20T21:47:15.184Z,33.60
2018-02-20T21:49:42.778Z,32.00
2018-02-20T21:52:10.344Z,41.70
2018-02-20T21:54:38.701Z,38.23
2018-02-20T21:57:06.277Z,38.93
2018-02-20T21:59:33.878Z,33.50
2018-02-20T22:02:01.453Z,38.13
2018-02-20T22:04:29.054Z,44.73
2018-02-20T22:06:56.631Z,41.13
2018-02-20T22:09:24.226Z,40.37
2018-02-20T22:11:51.840Z,39.40
2018-02-20T22:14:20.185Z,39.10
2018-02-20T22:16:47.771Z,46.77
2018-02-20T22:19:16.138Z,43.93
2018-02-20T22:21:44.148Z,42.53
2018-02-20T22:24:11.745Z,41.90
2018-02-20T22:26:39.341Z,40.37
2018-02-20T22:29:07.703Z,44.37
2018-02-20T22:31:36.032Z,44.73
2018-02-20T22:34:03.625Z,50.30
2018-02-20T22:36:31.232Z,46.30
2018-02-20T22:38:58.832Z,49.87
2018-02-20T22:41:26.422Z,46.07
2018-02-20T22:43:54.012Z,48.50
2018-02-20T22:46:21.599Z,51.37
2018-02-20T22:48:49.198Z,50.93
2018-02-20T22:51:17.534Z,45.83
2018-02-20T22:53:45.133Z,53.17
2018-02-20T22:56:12.703Z,45.97
2018-02-20T22:58:40.302Z,50.73
2018-02-20T23:01:07.906Z,51.30
2018-02-20T23:03:35.473Z,50.87
2018-02-20T23:06:03.836Z,50.23
2018-02-20T23:08:31.405Z,59.57
2018-02-20T23:10:59.002Z,52.73
2018-02-20T23:13:26.565Z,47.50
2018-02-20T23:15:54.167Z,51.87
2018-02-20T23:18:21.736Z,51.13
2018-02-20T23:20:49.365Z,58.97
2018-02-20T23:23:16.941Z,57.83
2018-02-20T23:25:44.525Z,48.87
2018-02-20T23:28:12.869Z,56.50
2018-02-20T23:30:40.469Z,61.10
2018-02-20T23:33:08.040Z,67.13
2018-02-20T23:35:35.638Z,51.60
2018-02-20T23:38:03.970Z,67.30
2018-02-20T23:40:31.573Z,49.93
2018-02-20T23:42:59.145Z,54.37
2018-02-20T23:45:26.739Z,54.13
2018-02-20T23:47:54.304Z,52.13
2018-02-20T23:50:22.663Z,57.60
2018-02-20T23:52:51.000Z,52.50
2018-02-20T23:55:18.639Z,61.80
2018-02-20T23:57:46.210Z,54.80
